createdAt,value
2022-08-09T00:04:37.184Z,24.07
2022-08-09T00:09:54.176Z,24.06
2022-08-09T00:15:13.903Z,24.05
2022-08-09T00:20:31.540Z,24.06
2022-08-09T00:25:51.902Z,24.04
2022-08-09T00:31:09.344Z,24.03
2022-08-09T00:36:42.899Z,24.01
2022-08-09T00:44:10.392Z,24.01
2022-08-09T00:47:39.588Z,24.00
2022-08-09T00:52:55.903Z,23.99
2022-08-09T00:58:14.668Z,23.97
2022-08-09T01:03:45.630Z,23.96
2022-08-09T01:09:01.943Z,23.96
2022-08-09T01:14:16.945Z,23.96
2022-08-09T01:19:42.475Z,23.97
2022-08-09T01:25:07.202Z,23.97
2022-08-09T01:30:33.585Z,23.97
2022-08-09T01:35:51.800Z,23.95
2022-08-09T01:41:08.193Z,23.94
2022-08-09T01:46:26.469Z,23.93
2022-08-09T01:51:44.321Z,23.93
2022-08-09T01:57:08.139Z,23.91
2022-08-09T02:02:24.251Z,23.90
2022-08-09T02:08:40.465Z,23.90
2022-08-09T02:13:25.877Z,23.90
2022-08-09T02:18:52.203Z,23.88
2022-08-09T02:24:07.959Z,23.88
2022-08-09T02:29:23.872Z,23.87
2022-08-09T02:34:51.979Z,23.86
2022-08-09T02:40:11.958Z,23.85
2022-08-09T02:45:28.827Z,23.83
2022-08-09T02:50:44.104Z,23.82
2022-08-09T02:56:01.128Z,23.81
2022-08-09T03:01:21.835Z,23.80
2022-08-09T03:06:51.985Z,23.78
2022-08-09T03:12:11.091Z,23.78
2022-08-09T03:17:28.890Z,23.78
2022-08-09T03:22:43.899Z,23.78
2022-08-09T03:27:58.933Z,23.76
2022-08-09T03:33:18.905Z,23.75
2022-08-09T03:38:35.174Z,23.75
2022-08-09T03:44:08.272Z,23.75
2022-08-09T03:49:24.222Z,23.74
2022-08-09T03:54:48.162Z,23.73
2022-08-09T04:00:06.863Z,23.73
2022-08-09T04:05:27.975Z,23.71
2022-08-09T04:10:44.190Z,23.71
2022-08-09T04:16:20.007Z,23.70
2022-08-09T04:21:40.171Z,23.68
2022-08-09T04:26:56.191Z,23.68
2022-08-09T04:32:11.872Z,23.66
2022-08-09T04:37:45.713Z,23.64
2022-08-09T04:43:01.896Z,23.64
2022-08-09T04:48:18.875Z,23.62
2022-08-09T04:53:34.949Z,23.60
2022-08-09T04:58:50.860Z,23.60
2022-08-09T05:04:06.252Z,23.58
2022-08-09T05:09:23.235Z,23.58
2022-08-09T05:14:41.428Z,23.57
2022-08-09T05:19:58.201Z,23.57
2022-08-09T05:25:15.158Z,23.56
2022-08-09T05:30:31.326Z,23.55
2022-08-09T05:35:50.106Z,23.54
2022-08-09T05:41:06.259Z,23.52
2022-08-09T05:46:28.950Z,23.50
2022-08-09T05:51:46.064Z,23.48
2022-08-09T05:57:01.923Z,23.46
2022-08-09T06:02:22.222Z,23.48
2022-08-09T06:07:37.965Z,23.49
2022-08-09T06:12:59.338Z,23.50
2022-08-09T06:18:27.978Z,23.50
2022-08-09T06:23:58.918Z,23.50
2022-08-09T06:29:17.181Z,23.48
2022-08-09T06:34:36.980Z,23.47
2022-08-09T06:40:00.024Z,23.47
2022-08-09T06:46:05.040Z,23.47
2022-08-09T06:50:52.923Z,23.47
2022-08-09T06:56:07.960Z,23.46
2022-08-09T07:01:27.468Z,23.47
2022-08-09T07:06:53.111Z,23.48
2022-08-09T07:12:17.528Z,23.46
2022-08-09T07:17:39.704Z,23.44
2022-08-09T07:22:56.092Z,23.47
2022-08-09T07:28:19.409Z,23.46
2022-08-09T07:33:52.621Z,23.46
2022-08-09T07:39:11.721Z,23.44
2022-08-09T07:44:51.973Z,23.44
2022-08-09T07:50:09.308Z,23.46
2022-08-09T07:55:24.913Z,23.47
2022-08-09T08:00:58.759Z,23.47
2022-08-09T08:06:21.257Z,23.50
2022-08-09T08:12:24.707Z,23.48
2022-08-09T08:17:35.455Z,23.47
2022-08-09T08:23:01.743Z,23.50
2022-08-09T08:28:31.964Z,23.50
2022-08-09T08:33:52.653Z,23.50
2022-08-09T08:39:10.619Z,23.50
2022-08-09T08:44:28.961Z,23.50
2022-08-09T08:49:46.804Z,23.49
2022-08-09T08:55:05.941Z,23.49
2022-08-09T09:00:30.223Z,23.48
2022-08-09T09:06:00.909Z,23.48
2022-08-09T09:11:20.184Z,23.50
2022-08-09T09:16:36.027Z,23.52
2022-08-09T09:21:51.261Z,23.51
2022-08-09T09:27:07.020Z,23.52
2022-08-09T09:32:34.283Z,23.52
2022-08-09T09:37:51.294Z,23.51
2022-08-09T09:43:06.971Z,23.53
2022-08-09T09:48:28.950Z,23.55
2022-08-09T09:53:57.532Z,23.56
2022-08-09T09:59:17.023Z,23.59
2022-08-09T10:04:33.944Z,23.59
2022-08-09T10:09:48.939Z,23.60
2022-08-09T10:15:17.313Z,23.61
2022-08-09T10:20:44.738Z,23.63
2022-08-09T10:26:06.266Z,23.63
2022-08-09T10:36:58.900Z,23.67
2022-08-09T10:42:15.954Z,23.68
2022-08-09T10:48:16.369Z,23.70
2022-08-09T10:53:10.273Z,23.72
2022-08-09T10:58:25.930Z,23.73
2022-08-09T11:03:51.411Z,23.75
2022-08-09T11:09:15.839Z,23.75
2022-08-09T11:15:09.982Z,23.75
2022-08-09T11:20:32.931Z,23.76
2022-08-09T11:25:49.402Z,23.77
2022-08-09T11:31:06.828Z,23.79
2022-08-09T11:36:30.420Z,23.79
2022-08-09T11:41:53.650Z,23.81
2022-08-09T11:47:14.427Z,23.82
2022-08-09T11:53:16.564Z,23.83
2022-08-09T11:58:06.062Z,23.85
2022-08-09T12:03:55.000Z,23.88
2022-08-09T12:08:58.019Z,23.90
2022-08-09T12:14:36.830Z,23.93
2022-08-09T12:19:50.932Z,23.96
2022-08-09T12:25:15.194Z,23.96
2022-08-09T12:30:36.287Z,24.00
2022-08-09T12:35:54.308Z,24.01
2022-08-09T12:41:13.907Z,24.03
2022-08-09T12:46:29.251Z,24.04
2022-08-09T12:52:00.218Z,24.07
2022-08-09T12:57:18.975Z,24.09
2022-08-09T13:02:34.119Z,24.10
2022-08-09T13:07:51.757Z,24.11
2022-08-09T13:13:10.877Z,24.13
2022-08-09T13:18:27.263Z,24.16
2022-08-09T13:24:16.694Z,24.16
2022-08-09T13:29:17.946Z,24.19
2022-08-09T13:34:33.998Z,24.20
2022-08-09T13:41:50.418Z,24.23
2022-08-09T13:45:32.179Z,24.25
2022-08-09T13:50:59.914Z,24.26
2022-08-09T13:56:14.951Z,24.29
2022-08-09T14:02:01.381Z,24.31
2022-08-09T14:07:10.335Z,24.33
2022-08-09T14:12:26.041Z,24.35
2022-08-09T14:18:19.363Z,24.36
2022-08-09T14:23:22.951Z,24.36
2022-08-09T14:28:52.257Z,24.38
2022-08-09T14:34:08.305Z,24.39
2022-08-09T14:39:47.536Z,24.40
2022-08-09T14:45:00.954Z,24.42
2022-08-09T14:50:17.539Z,24.43
2022-08-09T14:55:33.252Z,24.43
2022-08-09T15:00:51.054Z,24.43
2022-08-09T15:06:06.989Z,24.45
2022-08-09T15:11:23.920Z,24.46
2022-08-09T15:16:39.264Z,24.47
2022-08-09T15:22:02.105Z,24.48
2022-08-09T15:27:17.691Z,24.48
2022-08-09T15:32:34.016Z,24.52
2022-08-09T15:37:56.981Z,24.52
2022-08-09T15:43:24.916Z,24.53
2022-08-09T15:49:20.924Z,24.52
2022-08-09T15:54:35.533Z,24.51
2022-08-09T15:59:57.929Z,24.49
2022-08-09T16:05:12.943Z,24.49
2022-08-09T16:10:55.912Z,24.51
2022-08-09T16:16:11.244Z,24.49
2022-08-09T16:21:34.883Z,24.50
2022-08-09T16:26:51.030Z,24.48
2022-08-09T16:32:18.804Z,24.49
2022-08-09T16:37:55.990Z,24.51
2022-08-09T16:43:12.020Z,24.51
2022-08-09T16:48:39.218Z,24.51
2022-08-09T16:54:26.259Z,24.51
2022-08-09T16:59:35.924Z,24.52
2022-08-09T17:04:59.198Z,24.54
2022-08-09T17:10:16.327Z,24.54
2022-08-09T17:16:00.290Z,24.54
2022-08-09T17:21:08.302Z,24.55
2022-08-09T17:26:31.266Z,24.56
2022-08-09T17:31:49.033Z,24.56
2022-08-09T17:37:05.355Z,24.57
2022-08-09T17:42:41.962Z,24.56
2022-08-09T17:48:02.689Z,24.59
2022-08-09T17:53:22.445Z,24.60
2022-08-09T17:58:38.242Z,24.60
2022-08-09T18:03:57.962Z,24.62
2022-08-09T18:09:13.962Z,24.62
2022-08-09T18:14:32.254Z,24.60
2022-08-09T18:20:57.359Z,24.63
2022-08-09T18:25:50.679Z,24.64
2022-08-09T18:30:58.287Z,24.66
2022-08-09T18:36:32.155Z,24.66
2022-08-09T18:41:52.482Z,24.66
2022-08-09T18:47:15.926Z,24.67
2022-08-09T18:52:34.980Z,24.68
2022-08-09T18:57:50.942Z,24.68
2022-08-09T19:03:12.313Z,24.69
2022-08-09T19:08:28.256Z,24.69
2022-08-09T19:13:51.211Z,24.69
2022-08-09T19:19:25.725Z,24.70
2022-08-09T19:25:09.852Z,24.69
2022-08-09T19:30:22.426Z,24.68
2022-08-09T19:35:58.263Z,24.68
2022-08-09T19:41:14.004Z,24.68
2022-08-09T19:46:50.913Z,24.65
2022-08-09T19:52:09.025Z,24.62
2022-08-09T19:57:27.722Z,24.63
2022-08-09T20:04:12.176Z,24.61
2022-08-09T20:08:24.990Z,24.61
2022-08-09T20:13:54.245Z,24.61
2022-08-09T20:19:49.047Z,24.59
2022-08-09T20:24:53.312Z,24.58
2022-08-09T20:30:10.040Z,24.56
2022-08-09T20:35:24.962Z,24.55
2022-08-09T20:40:41.140Z,24.54
2022-08-09T20:46:33.140Z,24.53
2022-08-09T20:51:41.195Z,24.51
2022-08-09T20:56:58.014Z,24.48
2022-08-09T21:02:17.762Z,24.47
2022-08-09T21:07:40.726Z,24.47
2022-08-09T21:13:00.995Z,24.46
2022-08-09T21:18:25.184Z,24.44
2022-08-09T21:23:51.279Z,24.43
2022-08-09T21:29:11.709Z,24.42
2022-08-09T21:34:29.693Z,24.40
2022-08-09T21:39:45.346Z,24.39
2022-08-09T21:45:05.013Z,24.38
2022-08-09T21:50:33.871Z,24.37
2022-08-09T21:55:53.867Z,24.36
2022-08-09T22:01:11.929Z,24.36
2022-08-09T22:06:42.032Z,24.34
2022-08-09T22:12:17.548Z,24.33
2022-08-09T22:17:33.115Z,24.33
2022-08-09T22:22:49.033Z,24.30
2022-08-09T22:28:07.224Z,24.30
2022-08-09T22:33:22.991Z,24.29
2022-08-09T22:38:53.286Z,24.26
2022-08-09T22:44:09.670Z,24.26
2022-08-09T22:49:24.710Z,24.26
2022-08-09T22:54:46.849Z,24.25
2022-08-09T23:00:03.237Z,24.24
2022-08-09T23:05:19.330Z,24.24
2022-08-09T23:10:40.370Z,24.23
2022-08-09T23:16:02.873Z,24.22
2022-08-09T23:21:24.460Z,24.21
2022-08-09T23:26:41.031Z,24.19
2022-08-09T23:31:55.988Z,24.19
2022-08-09T23:37:11.069Z,24.17
2022-08-09T23:42:25.955Z,24.16
2022-08-09T23:47:40.986Z,24.16
2022-08-09T23:52:56.058Z,24.14
2022-08-09T23:58:27.733Z,24.14
